Terminal Aerodrome Forecast
Issued by NWS

Home | Current Version | Previous Version | Text Only | Print | Product List | Glossary On
Versions: 1 2 3 4 5 6 7 8 9 10 11 12 13 14 15 16 17 18
000
FTUS46 KSGX 210500
TAFONT
TAF
KONT 210520Z 2106/2212 VRB04KT P6SM SKC
     FM211200 VRB04KT P6SM OVC010
     FM211600 VRB04KT P6SM SCT012
     FM212100 26010KT P6SM SKC
     FM220400 VRB04KT P6SM SKC=

USA.gov is the U.S. government's official web portal to all federal, state and local government web resources and services.